sensor_id;sensor_type;location;lat;lon;timestamp;P1;durP1;ratioP1;P2;durP2;ratioP2
14076;SDS011;7114;51.100;13.998;2023-06-10T00:01:40;14.68;;;8.77;;
14076;SDS011;7114;51.100;13.998;2023-06-10T00:04:06;14.10;;;8.80;;
14076;SDS011;7114;51.100;13.998;2023-06-10T00:06:33;12.48;;;8.43;;
14076;SDS011;7114;51.100;13.998;2023-06-10T00:09:02;13.57;;;8.93;;
14076;SDS011;7114;51.100;13.998;2023-06-10T00:11:30;13.18;;;9.07;;
14076;SDS011;7114;51.100;13.998;2023-06-10T00:13:57;13.57;;;8.80;;
14076;SDS011;7114;51.100;13.998;2023-06-10T00:16:23;14.00;;;9.03;;
14076;SDS011;7114;51.100;13.998;2023-06-10T00:18:50;14.77;;;8.60;;
14076;SDS011;7114;51.100;13.998;2023-06-10T00:21:17;14.00;;;9.10;;
14076;SDS011;7114;51.100;13.998;2023-06-10T00:23:44;14.32;;;8.65;;
14076;SDS011;7114;51.100;13.998;2023-06-10T00:26:11;12.82;;;8.82;;
14076;SDS011;7114;51.100;13.998;2023-06-10T00:28:38;12.63;;;8.50;;
14076;SDS011;7114;51.100;13.998;2023-06-10T00:31:04;12.50;;;8.25;;
14076;SDS011;7114;51.100;13.998;2023-06-10T00:33:30;11.23;;;7.53;;
14076;SDS011;7114;51.100;13.998;2023-06-10T00:35:57;11.52;;;7.35;;
14076;SDS011;7114;51.100;13.998;2023-06-10T00:38:23;11.95;;;7.78;;
14076;SDS011;7114;51.100;13.998;2023-06-10T00:40:49;12.23;;;7.20;;
14076;SDS011;7114;51.100;13.998;2023-06-10T00:43:17;10.45;;;6.22;;
14076;SDS011;7114;51.100;13.998;2023-06-10T00:45:43;11.70;;;7.03;;
14076;SDS011;7114;51.100;13.998;2023-06-10T00:48:09;11.52;;;7.32;;
14076;SDS011;7114;51.100;13.998;2023-06-10T00:50:36;12.27;;;8.30;;
14076;SDS011;7114;51.100;13.998;2023-06-10T00:53:04;12.07;;;8.00;;
14076;SDS011;7114;51.100;13.998;2023-06-10T00:55:30;13.13;;;8.35;;
14076;SDS011;7114;51.100;13.998;2023-06-10T00:57:57;12.68;;;8.48;;
14076;SDS011;7114;51.100;13.998;2023-06-10T01:00:26;12.63;;;8.57;;
14076;SDS011;7114;51.100;13.998;2023-06-10T01:02:52;12.70;;;8.27;;
14076;SDS011;7114;51.100;13.998;2023-06-10T01:05:18;13.07;;;8.13;;
14076;SDS011;7114;51.100;13.998;2023-06-10T01:07:47;12.25;;;7.88;;
14076;SDS011;7114;51.100;13.998;2023-06-10T01:10:20;12.45;;;7.25;;
14076;SDS011;7114;51.100;13.998;2023-06-10T01:12:49;12.63;;;7.78;;
14076;SDS011;7114;51.100;13.998;2023-06-10T01:15:18;12.80;;;7.22;;
14076;SDS011;7114;51.100;13.998;2023-06-10T01:17:55;12.53;;;7.33;;
14076;SDS011;7114;51.100;13.998;2023-06-10T01:20:22;11.60;;;7.60;;
14076;SDS011;7114;51.100;13.998;2023-06-10T01:22:50;11.70;;;7.30;;
14076;SDS011;7114;51.100;13.998;2023-06-10T01:25:19;11.77;;;7.28;;
14076;SDS011;7114;51.100;13.998;2023-06-10T01:27:45;11.90;;;7.53;;
14076;SDS011;7114;51.100;13.998;2023-06-10T01:30:15;11.70;;;6.90;;
14076;SDS011;7114;51.100;13.998;2023-06-10T01:32:46;12.23;;;7.80;;
14076;SDS011;7114;51.100;13.998;2023-06-10T01:35:15;12.52;;;7.05;;
14076;SDS011;7114;51.100;13.998;2023-06-10T01:37:41;11.52;;;7.22;;
14076;SDS011;7114;51.100;13.998;2023-06-10T01:40:11;11.50;;;7.10;;
14076;SDS011;7114;51.100;13.998;2023-06-10T01:42:38;12.17;;;6.83;;
14076;SDS011;7114;51.100;13.998;2023-06-10T01:45:04;14.05;;;7.28;;
14076;SDS011;7114;51.100;13.998;2023-06-10T01:47:31;12.35;;;7.50;;
14076;SDS011;7114;51.100;13.998;2023-06-10T01:49:58;11.90;;;7.10;;
14076;SDS011;7114;51.100;13.998;2023-06-10T01:52:24;10.80;;;6.47;;
14076;SDS011;7114;51.100;13.998;2023-06-10T01:54:51;11.53;;;6.97;;
14076;SDS011;7114;51.100;13.998;2023-06-10T01:57:19;11.80;;;7.05;;
14076;SDS011;7114;51.100;13.998;2023-06-10T01:59:45;11.25;;;6.93;;
14076;SDS011;7114;51.100;13.998;2023-06-10T02:02:11;12.23;;;7.28;;
14076;SDS011;7114;51.100;13.998;2023-06-10T02:04:38;10.80;;;6.97;;
14076;SDS011;7114;51.100;13.998;2023-06-10T02:07:04;11.47;;;6.90;;
14076;SDS011;7114;51.100;13.998;2023-06-10T02:09:31;11.90;;;7.35;;
14076;SDS011;7114;51.100;13.998;2023-06-10T02:11:59;12.57;;;7.30;;
14076;SDS011;7114;51.100;13.998;2023-06-10T02:14:27;11.43;;;7.30;;
14076;SDS011;7114;51.100;13.998;2023-06-10T02:16:53;11.75;;;7.13;;
14076;SDS011;7114;51.100;13.998;2023-06-10T02:19:21;14.13;;;7.13;;
14076;SDS011;7114;51.100;13.998;2023-06-10T02:21:48;12.48;;;7.07;;
14076;SDS011;7114;51.100;13.998;2023-06-10T02:24:15;11.63;;;7.30;;
14076;SDS011;7114;51.100;13.998;2023-06-10T02:26:41;11.27;;;7.10;;
14076;SDS011;7114;51.100;13.998;2023-06-10T02:29:07;12.40;;;7.10;;
14076;SDS011;7114;51.100;13.998;2023-06-10T02:31:35;14.30;;;7.13;;
14076;SDS011;7114;51.100;13.998;2023-06-10T02:34:02;11.30;;;6.97;;
14076;SDS011;7114;51.100;13.998;2023-06-10T02:36:29;12.15;;;7.00;;
14076;SDS011;7114;51.100;13.998;2023-06-10T02:38:55;15.25;;;7.47;;
14076;SDS011;7114;51.100;13.998;2023-06-10T02:41:22;14.13;;;7.47;;
14076;SDS011;7114;51.100;13.998;2023-06-10T02:43:50;13.53;;;6.90;;
14076;SDS011;7114;51.100;13.998;2023-06-10T02:46:16;13.75;;;7.78;;
14076;SDS011;7114;51.100;13.998;2023-06-10T02:48:43;12.45;;;7.60;;
14076;SDS011;7114;51.100;13.998;2023-06-10T02:51:11;13.30;;;7.40;;
14076;SDS011;7114;51.100;13.998;2023-06-10T02:53:37;13.07;;;8.18;;
14076;SDS011;7114;51.100;13.998;2023-06-10T02:56:03;13.20;;;7.53;;
14076;SDS011;7114;51.100;13.998;2023-06-10T02:58:30;12.25;;;7.68;;
14076;SDS011;7114;51.100;13.998;2023-06-10T03:00:56;12.65;;;8.13;;
14076;SDS011;7114;51.100;13.998;2023-06-10T03:03:23;12.55;;;7.55;;
14076;SDS011;7114;51.100;13.998;2023-06-10T03:05:52;15.05;;;7.97;;
14076;SDS011;7114;51.100;13.998;2023-06-10T03:08:18;15.27;;;7.63;;
14076;SDS011;7114;51.100;13.998;2023-06-10T03:10:44;14.93;;;7.80;;
14076;SDS011;7114;51.100;13.998;2023-06-10T03:13:10;11.60;;;6.70;;
14076;SDS011;7114;51.100;13.998;2023-06-10T03:15:37;13.25;;;6.80;;
14076;SDS011;7114;51.100;13.998;2023-06-10T03:18:05;13.57;;;7.40;;
14076;SDS011;7114;51.100;13.998;2023-06-10T03:20:32;12.03;;;7.37;;
14076;SDS011;7114;51.100;13.998;2023-06-10T03:23:03;13.80;;;7.35;;
14076;SDS011;7114;51.100;13.998;2023-06-10T03:25:31;12.55;;;7.70;;
14076;SDS011;7114;51.100;13.998;2023-06-10T03:27:57;12.45;;;7.05;;
14076;SDS011;7114;51.100;13.998;2023-06-10T03:30:23;11.77;;;7.07;;
14076;SDS011;7114;51.100;13.998;2023-06-10T03:32:50;10.50;;;6.77;;
14076;SDS011;7114;51.100;13.998;2023-06-10T03:35:16;12.32;;;7.47;;
14076;SDS011;7114;51.100;13.998;2023-06-10T03:37:42;14.98;;;7.13;;
14076;SDS011;7114;51.100;13.998;2023-06-10T03:40:10;13.00;;;7.13;;
14076;SDS011;7114;51.100;13.998;2023-06-10T03:42:36;12.95;;;7.07;;
14076;SDS011;7114;51.100;13.998;2023-06-10T03:45:03;13.60;;;7.07;;
14076;SDS011;7114;51.100;13.998;2023-06-10T03:47:32;12.68;;;6.78;;
14076;SDS011;7114;51.100;13.998;2023-06-10T03:49:59;12.50;;;7.35;;
14076;SDS011;7114;51.100;13.998;2023-06-10T03:52:26;13.45;;;6.78;;
14076;SDS011;7114;51.100;13.998;2023-06-10T03:54:52;14.00;;;6.78;;
14076;SDS011;7114;51.100;13.998;2023-06-10T03:57:20;11.50;;;6.63;;
14076;SDS011;7114;51.100;13.998;2023-06-10T03:59:46;11.68;;;6.68;;
14076;SDS011;7114;51.100;13.998;2023-06-10T04:02:12;12.82;;;6.47;;
14076;SDS011;7114;51.100;13.998;2023-06-10T04:04:39;12.07;;;6.22;;
14076;SDS011;7114;51.100;13.998;2023-06-10T04:07:06;12.95;;;6.28;;
14076;SDS011;7114;51.100;13.998;2023-06-10T04:09:33;10.57;;;6.00;;
14076;SDS011;7114;51.100;13.998;2023-06-10T04:11:59;14.32;;;6.95;;
14076;SDS011;7114;51.100;13.998;2023-06-10T04:14:27;10.63;;;5.72;;
14076;SDS011;7114;51.100;13.998;2023-06-10T04:16:53;11.20;;;6.30;;
14076;SDS011;7114;51.100;13.998;2023-06-10T04:19:19;10.20;;;5.65;;
14076;SDS011;7114;51.100;13.998;2023-06-10T04:21:46;9.70;;;5.53;;
14076;SDS011;7114;51.100;13.998;2023-06-10T04:24:12;10.27;;;5.57;;
14076;SDS011;7114;51.100;13.998;2023-06-10T04:26:38;13.30;;;6.00;;
14076;SDS011;7114;51.100;13.998;2023-06-10T04:29:04;10.55;;;5.82;;
14076;SDS011;7114;51.100;13.998;2023-06-10T04:31:32;9.80;;;5.10;;
14076;SDS011;7114;51.100;13.998;2023-06-10T04:33:59;10.10;;;5.20;;
14076;SDS011;7114;51.100;13.998;2023-06-10T04:36:25;10.35;;;5.00;;
14076;SDS011;7114;51.100;13.998;2023-06-10T04:38:54;9.00;;;5.22;;
14076;SDS011;7114;51.100;13.998;2023-06-10T04:41:20;9.15;;;4.95;;
14076;SDS011;7114;51.100;13.998;2023-06-10T04:43:47;9.30;;;5.28;;
14076;SDS011;7114;51.100;13.998;2023-06-10T04:46:13;9.90;;;5.00;;
14076;SDS011;7114;51.100;13.998;2023-06-10T04:48:41;9.45;;;5.05;;
14076;SDS011;7114;51.100;13.998;2023-06-10T04:51:08;11.18;;;5.07;;
14076;SDS011;7114;51.100;13.998;2023-06-10T04:53:34;9.60;;;4.93;;
14076;SDS011;7114;51.100;13.998;2023-06-10T04:56:01;9.68;;;5.22;;
14076;SDS011;7114;51.100;13.998;2023-06-10T04:58:27;9.40;;;4.67;;
14076;SDS011;7114;51.100;13.998;2023-06-10T05:00:53;9.48;;;5.10;;
14076;SDS011;7114;51.100;13.998;2023-06-10T05:03:20;10.02;;;5.07;;
14076;SDS011;7114;51.100;13.998;2023-06-10T05:05:47;7.95;;;4.43;;
14076;SDS011;7114;51.100;13.998;2023-06-10T05:08:13;9.50;;;5.13;;
14076;SDS011;7114;51.100;13.998;2023-06-10T05:10:40;9.83;;;4.73;;
14076;SDS011;7114;51.100;13.998;2023-06-10T05:13:06;9.68;;;5.07;;
14076;SDS011;7114;51.100;13.998;2023-06-10T05:15:32;9.50;;;5.10;;
14076;SDS011;7114;51.100;13.998;2023-06-10T05:17:58;9.20;;;4.85;;
14076;SDS011;7114;51.100;13.998;2023-06-10T05:20:27;9.65;;;5.00;;
14076;SDS011;7114;51.100;13.998;2023-06-10T05:22:55;8.97;;;4.40;;
14076;SDS011;7114;51.100;13.998;2023-06-10T05:25:21;8.60;;;4.88;;
14076;SDS011;7114;51.100;13.998;2023-06-10T05:27:47;9.57;;;4.90;;
14076;SDS011;7114;51.100;13.998;2023-06-10T05:30:14;8.77;;;5.18;;
14076;SDS011;7114;51.100;13.998;2023-06-10T05:32:41;9.27;;;4.72;;
14076;SDS011;7114;51.100;13.998;2023-06-10T05:35:08;9.00;;;4.87;;
14076;SDS011;7114;51.100;13.998;2023-06-10T05:37:34;8.13;;;4.38;;
14076;SDS011;7114;51.100;13.998;2023-06-10T05:40:03;9.52;;;4.72;;
14076;SDS011;7114;51.100;13.998;2023-06-10T05:42:30;7.80;;;4.40;;
14076;SDS011;7114;51.100;13.998;2023-06-10T05:44:56;7.95;;;4.45;;
14076;SDS011;7114;51.100;13.998;2023-06-10T05:47:22;8.50;;;4.30;;
14076;SDS011;7114;51.100;13.998;2023-06-10T05:49:49;7.47;;;4.40;;
14076;SDS011;7114;51.100;13.998;2023-06-10T05:52:16;8.10;;;4.40;;
14076;SDS011;7114;51.100;13.998;2023-06-10T05:54:42;8.23;;;4.82;;
14076;SDS011;7114;51.100;13.998;2023-06-10T05:57:10;8.20;;;4.22;;
14076;SDS011;7114;51.100;13.998;2023-06-10T05:59:36;10.40;;;4.47;;
14076;SDS011;7114;51.100;13.998;2023-06-10T06:02:03;7.80;;;4.22;;
14076;SDS011;7114;51.100;13.998;2023-06-10T06:04:30;7.70;;;4.32;;
14076;SDS011;7114;51.100;13.998;2023-06-10T06:06:57;8.38;;;4.85;;
14076;SDS011;7114;51.100;13.998;2023-06-10T06:09:23;7.85;;;4.13;;
14076;SDS011;7114;51.100;13.998;2023-06-10T06:11:49;9.80;;;4.43;;
14076;SDS011;7114;51.100;13.998;2023-06-10T06:14:17;7.97;;;4.22;;
14076;SDS011;7114;51.100;13.998;2023-06-10T06:16:43;7.45;;;4.55;;
14076;SDS011;7114;51.100;13.998;2023-06-10T06:19:09;8.07;;;4.60;;
14076;SDS011;7114;51.100;13.998;2023-06-10T06:21:36;8.32;;;4.43;;
14076;SDS011;7114;51.100;13.998;2023-06-10T06:24:02;7.63;;;4.60;;
14076;SDS011;7114;51.100;13.998;2023-06-10T06:26:29;7.78;;;5.10;;
14076;SDS011;7114;51.100;13.998;2023-06-10T06:28:55;7.90;;;5.30;;
14076;SDS011;7114;51.100;13.998;2023-06-10T06:31:22;8.15;;;5.15;;
14076;SDS011;7114;51.100;13.998;2023-06-10T06:33:49;8.88;;;4.57;;
14076;SDS011;7114;51.100;13.998;2023-06-10T06:36:15;8.90;;;4.87;;
14076;SDS011;7114;51.100;13.998;2023-06-10T06:38:41;7.70;;;4.70;;
14076;SDS011;7114;51.100;13.998;2023-06-10T06:41:07;9.32;;;5.72;;
14076;SDS011;7114;51.100;13.998;2023-06-10T06:43:34;8.75;;;5.07;;
14076;SDS011;7114;51.100;13.998;2023-06-10T06:46:00;9.15;;;5.30;;
14076;SDS011;7114;51.100;13.998;2023-06-10T06:48:27;10.20;;;5.30;;
14076;SDS011;7114;51.100;13.998;2023-06-10T06:50:54;8.60;;;4.97;;
14076;SDS011;7114;51.100;13.998;2023-06-10T06:53:23;9.07;;;5.68;;
14076;SDS011;7114;51.100;13.998;2023-06-10T06:55:49;8.20;;;5.43;;
14076;SDS011;7114;51.100;13.998;2023-06-10T06:58:15;10.02;;;5.80;;
14076;SDS011;7114;51.100;13.998;2023-06-10T07:00:41;8.97;;;5.20;;
14076;SDS011;7114;51.100;13.998;2023-06-10T07:03:08;8.60;;;5.65;;
14076;SDS011;7114;51.100;13.998;2023-06-10T07:05:35;9.93;;;5.50;;
14076;SDS011;7114;51.100;13.998;2023-06-10T07:08:01;8.80;;;5.88;;
14076;SDS011;7114;51.100;13.998;2023-06-10T07:10:28;9.07;;;5.78;;
14076;SDS011;7114;51.100;13.998;2023-06-10T07:12:54;9.13;;;5.40;;
14076;SDS011;7114;51.100;13.998;2023-06-10T07:15:20;8.52;;;5.60;;
14076;SDS011;7114;51.100;13.998;2023-06-10T07:17:47;8.50;;;5.38;;
14076;SDS011;7114;51.100;13.998;2023-06-10T07:20:13;8.63;;;5.25;;
14076;SDS011;7114;51.100;13.998;2023-06-10T07:22:41;8.93;;;5.43;;
14076;SDS011;7114;51.100;13.998;2023-06-10T07:25:08;9.10;;;5.23;;
14076;SDS011;7114;51.100;13.998;2023-06-10T07:27:34;8.90;;;5.63;;
14076;SDS011;7114;51.100;13.998;2023-06-10T07:30:02;8.13;;;5.28;;
14076;SDS011;7114;51.100;13.998;2023-06-10T07:32:29;12.07;;;5.90;;
14076;SDS011;7114;51.100;13.998;2023-06-10T07:34:56;10.20;;;5.45;;
14076;SDS011;7114;51.100;13.998;2023-06-10T07:37:22;9.63;;;5.63;;
14076;SDS011;7114;51.100;13.998;2023-06-10T07:39:50;9.25;;;5.25;;
14076;SDS011;7114;51.100;13.998;2023-06-10T07:42:16;9.48;;;5.93;;
14076;SDS011;7114;51.100;13.998;2023-06-10T07:44:42;8.68;;;5.10;;
14076;SDS011;7114;51.100;13.998;2023-06-10T07:47:08;9.68;;;5.93;;
14076;SDS011;7114;51.100;13.998;2023-06-10T07:49:35;8.13;;;5.20;;
14076;SDS011;7114;51.100;13.998;2023-06-10T07:52:01;9.55;;;5.82;;
14076;SDS011;7114;51.100;13.998;2023-06-10T07:54:27;10.73;;;5.63;;
14076;SDS011;7114;51.100;13.998;2023-06-10T07:56:55;8.20;;;5.70;;
14076;SDS011;7114;51.100;13.998;2023-06-10T07:59:21;9.25;;;5.90;;
14076;SDS011;7114;51.100;13.998;2023-06-10T08:01:47;8.47;;;5.53;;
14076;SDS011;7114;51.100;13.998;2023-06-10T08:04:14;11.55;;;7.30;;
14076;SDS011;7114;51.100;13.998;2023-06-10T08:06:42;9.52;;;6.13;;
14076;SDS011;7114;51.100;13.998;2023-06-10T08:09:09;11.27;;;6.03;;
14076;SDS011;7114;51.100;13.998;2023-06-10T08:11:35;9.93;;;6.13;;
14076;SDS011;7114;51.100;13.998;2023-06-10T08:14:03;10.13;;;5.87;;
14076;SDS011;7114;51.100;13.998;2023-06-10T08:16:29;8.85;;;6.15;;
14076;SDS011;7114;51.100;13.998;2023-06-10T08:18:55;8.77;;;5.93;;
14076;SDS011;7114;51.100;13.998;2023-06-10T08:21:22;8.30;;;5.38;;
14076;SDS011;7114;51.100;13.998;2023-06-10T08:23:49;9.90;;;6.10;;
14076;SDS011;7114;51.100;13.998;2023-06-10T08:26:18;9.50;;;5.70;;
14076;SDS011;7114;51.100;13.998;2023-06-10T08:28:44;8.50;;;5.53;;
14076;SDS011;7114;51.100;13.998;2023-06-10T08:31:12;9.20;;;6.00;;
14076;SDS011;7114;51.100;13.998;2023-06-10T08:33:38;11.02;;;5.72;;
14076;SDS011;7114;51.100;13.998;2023-06-10T08:36:07;8.63;;;5.63;;
14076;SDS011;7114;51.100;13.998;2023-06-10T08:38:33;10.37;;;5.50;;
14076;SDS011;7114;51.100;13.998;2023-06-10T08:41:00;8.30;;;5.38;;
14076;SDS011;7114;51.100;13.998;2023-06-10T08:43:28;9.57;;;6.15;;
14076;SDS011;7114;51.100;13.998;2023-06-10T08:45:59;9.90;;;5.50;;
14076;SDS011;7114;51.100;13.998;2023-06-10T08:48:28;8.88;;;5.68;;
14076;SDS011;7114;51.100;13.998;2023-06-10T08:50:55;13.57;;;6.17;;
14076;SDS011;7114;51.100;13.998;2023-06-10T08:53:22;8.85;;;5.70;;
14076;SDS011;7114;51.100;13.998;2023-06-10T08:55:50;8.85;;;5.45;;
14076;SDS011;7114;51.100;13.998;2023-06-10T08:58:17;9.55;;;5.45;;
14076;SDS011;7114;51.100;13.998;2023-06-10T09:00:44;10.57;;;5.85;;
14076;SDS011;7114;51.100;13.998;2023-06-10T09:03:11;9.73;;;5.80;;
14076;SDS011;7114;51.100;13.998;2023-06-10T09:05:39;7.68;;;5.43;;
14076;SDS011;7114;51.100;13.998;2023-06-10T09:08:06;9.40;;;5.47;;
14076;SDS011;7114;51.100;13.998;2023-06-10T09:10:34;9.40;;;5.70;;
14076;SDS011;7114;51.100;13.998;2023-06-10T09:13:00;9.85;;;5.50;;
14076;SDS011;7114;51.100;13.998;2023-06-10T09:15:27;7.90;;;5.20;;
14076;SDS011;7114;51.100;13.998;2023-06-10T09:17:53;8.38;;;5.43;;
14076;SDS011;7114;51.100;13.998;2023-06-10T09:20:19;9.70;;;5.88;;
14076;SDS011;7114;51.100;13.998;2023-06-10T09:22:47;8.13;;;5.35;;
14076;SDS011;7114;51.100;13.998;2023-06-10T09:25:13;8.35;;;5.60;;
14076;SDS011;7114;51.100;13.998;2023-06-10T09:27:43;8.63;;;5.10;;
14076;SDS011;7114;51.100;13.998;2023-06-10T09:30:10;8.98;;;5.40;;
14076;SDS011;7114;51.100;13.998;2023-06-10T09:32:49;8.85;;;5.60;;
14076;SDS011;7114;51.100;13.998;2023-06-10T09:35:16;10.02;;;5.57;;
14076;SDS011;7114;51.100;13.998;2023-06-10T09:37:43;8.40;;;5.38;;
14076;SDS011;7114;51.100;13.998;2023-06-10T09:40:12;10.30;;;5.33;;
14076;SDS011;7114;51.100;13.998;2023-06-10T09:42:38;9.73;;;5.60;;
14076;SDS011;7114;51.100;13.998;2023-06-10T09:45:05;13.43;;;6.32;;
14076;SDS011;7114;51.100;13.998;2023-06-10T09:47:33;22.45;;;7.72;;
14076;SDS011;7114;51.100;13.998;2023-06-10T09:49:59;15.20;;;7.47;;
14076;SDS011;7114;51.100;13.998;2023-06-10T09:52:27;11.83;;;6.60;;
14076;SDS011;7114;51.100;13.998;2023-06-10T09:54:54;9.40;;;5.82;;
14076;SDS011;7114;51.100;13.998;2023-06-10T09:57:26;8.80;;;5.45;;
14076;SDS011;7114;51.100;13.998;2023-06-10T09:59:57;9.20;;;5.97;;
14076;SDS011;7114;51.100;13.998;2023-06-10T10:02:23;21.45;;;8.32;;
14076;SDS011;7114;51.100;13.998;2023-06-10T10:04:50;12.63;;;6.20;;
14076;SDS011;7114;51.100;13.998;2023-06-10T10:07:16;9.50;;;6.03;;
14076;SDS011;7114;51.100;13.998;2023-06-10T10:09:42;8.68;;;6.13;;
14076;SDS011;7114;51.100;13.998;2023-06-10T10:12:09;8.77;;;6.18;;
14076;SDS011;7114;51.100;13.998;2023-06-10T10:14:38;9.68;;;6.05;;
14076;SDS011;7114;51.100;13.998;2023-06-10T10:17:07;10.35;;;6.50;;
14076;SDS011;7114;51.100;13.998;2023-06-10T10:19:36;8.77;;;5.80;;
14076;SDS011;7114;51.100;13.998;2023-06-10T10:22:07;11.43;;;6.10;;
14076;SDS011;7114;51.100;13.998;2023-06-10T10:24:35;9.48;;;5.93;;
14076;SDS011;7114;51.100;13.998;2023-06-10T10:27:04;8.52;;;5.57;;
14076;SDS011;7114;51.100;13.998;2023-06-10T10:29:37;9.57;;;6.10;;
14076;SDS011;7114;51.100;13.998;2023-06-10T10:32:06;9.77;;;6.00;;
14076;SDS011;7114;51.100;13.998;2023-06-10T10:34:34;9.52;;;6.53;;
14076;SDS011;7114;51.100;13.998;2023-06-10T10:37:02;9.27;;;5.70;;
14076;SDS011;7114;51.100;13.998;2023-06-10T10:39:29;8.65;;;6.22;;
14076;SDS011;7114;51.100;13.998;2023-06-10T10:41:56;12.05;;;6.20;;
14076;SDS011;7114;51.100;13.998;2023-06-10T10:44:22;8.73;;;6.03;;
14076;SDS011;7114;51.100;13.998;2023-06-10T10:46:50;9.23;;;6.10;;
14076;SDS011;7114;51.100;13.998;2023-06-10T10:49:19;9.52;;;6.55;;
14076;SDS011;7114;51.100;13.998;2023-06-10T10:51:55;9.88;;;6.45;;
14076;SDS011;7114;51.100;13.998;2023-06-10T10:54:28;11.68;;;6.80;;
14076;SDS011;7114;51.100;13.998;2023-06-10T10:57:11;9.33;;;6.43;;
14076;SDS011;7114;51.100;13.998;2023-06-10T10:59:45;8.88;;;6.30;;
14076;SDS011;7114;51.100;13.998;2023-06-10T11:02:17;10.02;;;6.10;;
14076;SDS011;7114;51.100;13.998;2023-06-10T11:04:44;10.25;;;6.00;;
14076;SDS011;7114;51.100;13.998;2023-06-10T11:07:11;10.10;;;5.85;;
14076;SDS011;7114;51.100;13.998;2023-06-10T11:09:40;8.50;;;6.27;;
14076;SDS011;7114;51.100;13.998;2023-06-10T11:12:23;10.00;;;6.43;;
14076;SDS011;7114;51.100;13.998;2023-06-10T11:14:53;9.25;;;6.55;;
14076;SDS011;7114;51.100;13.998;2023-06-10T11:17:21;10.18;;;6.60;;
14076;SDS011;7114;51.100;13.998;2023-06-10T11:19:48;8.82;;;6.20;;
14076;SDS011;7114;51.100;13.998;2023-06-10T11:22:16;9.57;;;6.23;;
14076;SDS011;7114;51.100;13.998;2023-06-10T11:24:46;12.50;;;7.70;;
14076;SDS011;7114;51.100;13.998;2023-06-10T11:27:17;15.02;;;6.70;;
14076;SDS011;7114;51.100;13.998;2023-06-10T11:29:54;10.43;;;6.50;;
14076;SDS011;7114;51.100;13.998;2023-06-10T11:32:22;11.57;;;6.97;;
14076;SDS011;7114;51.100;13.998;2023-06-10T11:34:51;8.87;;;5.80;;
14076;SDS011;7114;51.100;13.998;2023-06-10T11:37:18;8.82;;;6.20;;
14076;SDS011;7114;51.100;13.998;2023-06-10T11:39:44;10.18;;;6.07;;
14076;SDS011;7114;51.100;13.998;2023-06-10T11:42:10;9.88;;;6.38;;
14076;SDS011;7114;51.100;13.998;2023-06-10T11:44:37;9.45;;;6.53;;
14076;SDS011;7114;51.100;13.998;2023-06-10T11:47:03;10.17;;;6.60;;
14076;SDS011;7114;51.100;13.998;2023-06-10T11:49:31;8.05;;;6.20;;
14076;SDS011;7114;51.100;13.998;2023-06-10T11:51:58;8.55;;;6.50;;
14076;SDS011;7114;51.100;13.998;2023-06-10T11:54:24;10.48;;;6.30;;
14076;SDS011;7114;51.100;13.998;2023-06-10T11:56:56;9.30;;;6.45;;
14076;SDS011;7114;51.100;13.998;2023-06-10T11:59:26;8.67;;;5.67;;
14076;SDS011;7114;51.100;13.998;2023-06-10T12:01:53;7.80;;;5.22;;
14076;SDS011;7114;51.100;13.998;2023-06-10T12:04:19;9.18;;;5.55;;
14076;SDS011;7114;51.100;13.998;2023-06-10T12:06:48;8.57;;;5.38;;
14076;SDS011;7114;51.100;13.998;2023-06-10T12:09:18;10.30;;;6.38;;
14076;SDS011;7114;51.100;13.998;2023-06-10T12:11:45;9.40;;;5.60;;
14076;SDS011;7114;51.100;13.998;2023-06-10T12:14:11;10.00;;;5.67;;
14076;SDS011;7114;51.100;13.998;2023-06-10T12:16:38;8.40;;;6.18;;
14076;SDS011;7114;51.100;13.998;2023-06-10T12:19:04;10.68;;;6.70;;
14076;SDS011;7114;51.100;13.998;2023-06-10T12:21:32;10.07;;;6.22;;
14076;SDS011;7114;51.100;13.998;2023-06-10T12:24:01;10.73;;;6.65;;
14076;SDS011;7114;51.100;13.998;2023-06-10T12:26:35;8.67;;;5.70;;
14076;SDS011;7114;51.100;13.998;2023-06-10T12:29:15;7.93;;;5.90;;
14076;SDS011;7114;51.100;13.998;2023-06-10T12:31:55;10.75;;;6.70;;
14076;SDS011;7114;51.100;13.998;2023-06-10T12:34:27;9.45;;;6.53;;
14076;SDS011;7114;51.100;13.998;2023-06-10T12:37:00;11.07;;;6.70;;
14076;SDS011;7114;51.100;13.998;2023-06-10T12:39:29;10.33;;;6.10;;
14076;SDS011;7114;51.100;13.998;2023-06-10T12:41:55;10.73;;;6.20;;
14076;SDS011;7114;51.100;13.998;2023-06-10T12:44:28;10.57;;;6.03;;
14076;SDS011;7114;51.100;13.998;2023-06-10T12:46:56;11.57;;;6.78;;
14076;SDS011;7114;51.100;13.998;2023-06-10T12:49:22;9.05;;;6.13;;
14076;SDS011;7114;51.100;13.998;2023-06-10T12:51:49;9.57;;;5.50;;
14076;SDS011;7114;51.100;13.998;2023-06-10T12:54:16;11.55;;;6.03;;
14076;SDS011;7114;51.100;13.998;2023-06-10T12:56:43;11.32;;;6.30;;
14076;SDS011;7114;51.100;13.998;2023-06-10T12:59:10;10.40;;;5.80;;
14076;SDS011;7114;51.100;13.998;2023-06-10T13:01:37;8.35;;;5.82;;
14076;SDS011;7114;51.100;13.998;2023-06-10T13:04:04;10.23;;;5.83;;
14076;SDS011;7114;51.100;13.998;2023-06-10T13:06:31;8.80;;;6.05;;
14076;SDS011;7114;51.100;13.998;2023-06-10T13:09:01;8.23;;;6.00;;
14076;SDS011;7114;51.100;13.998;2023-06-10T13:11:28;8.45;;;5.57;;
14076;SDS011;7114;51.100;13.998;2023-06-10T13:13:55;9.05;;;5.72;;
14076;SDS011;7114;51.100;13.998;2023-06-10T13:16:22;8.27;;;5.60;;
14076;SDS011;7114;51.100;13.998;2023-06-10T13:18:48;10.98;;;5.20;;
14076;SDS011;7114;51.100;13.998;2023-06-10T13:21:14;8.43;;;5.18;;
14076;SDS011;7114;51.100;13.998;2023-06-10T13:23:43;8.52;;;5.50;;
14076;SDS011;7114;51.100;13.998;2023-06-10T13:26:10;8.07;;;5.30;;
14076;SDS011;7114;51.100;13.998;2023-06-10T13:28:37;7.43;;;5.23;;
14076;SDS011;7114;51.100;13.998;2023-06-10T13:31:04;10.45;;;5.07;;
14076;SDS011;7114;51.100;13.998;2023-06-10T13:33:32;7.75;;;4.93;;
14076;SDS011;7114;51.100;13.998;2023-06-10T13:35:58;8.52;;;4.95;;
14076;SDS011;7114;51.100;13.998;2023-06-10T13:38:24;8.50;;;5.20;;
14076;SDS011;7114;51.100;13.998;2023-06-10T13:40:51;7.87;;;4.77;;
14076;SDS011;7114;51.100;13.998;2023-06-10T13:43:17;7.68;;;5.10;;
14076;SDS011;7114;51.100;13.998;2023-06-10T13:45:43;7.63;;;4.70;;
14076;SDS011;7114;51.100;13.998;2023-06-10T13:48:11;8.23;;;4.90;;
14076;SDS011;7114;51.100;13.998;2023-06-10T13:50:37;7.70;;;5.00;;
14076;SDS011;7114;51.100;13.998;2023-06-10T13:53:04;8.03;;;4.83;;
14076;SDS011;7114;51.100;13.998;2023-06-10T13:55:30;7.43;;;4.50;;
14076;SDS011;7114;51.100;13.998;2023-06-10T13:57:56;7.93;;;4.60;;
14076;SDS011;7114;51.100;13.998;2023-06-10T14:00:23;7.80;;;4.63;;
14076;SDS011;7114;51.100;13.998;2023-06-10T14:02:50;9.98;;;4.68;;
14076;SDS011;7114;51.100;13.998;2023-06-10T14:05:17;7.63;;;4.63;;
14076;SDS011;7114;51.100;13.998;2023-06-10T14:07:43;10.32;;;4.82;;
14076;SDS011;7114;51.100;13.998;2023-06-10T14:10:10;9.65;;;4.70;;
14076;SDS011;7114;51.100;13.998;2023-06-10T14:12:37;8.75;;;5.18;;
14076;SDS011;7114;51.100;13.998;2023-06-10T14:15:04;7.68;;;5.28;;
14076;SDS011;7114;51.100;13.998;2023-06-10T14:17:31;9.63;;;5.10;;
14076;SDS011;7114;51.100;13.998;2023-06-10T14:19:57;8.48;;;5.32;;
14076;SDS011;7114;51.100;13.998;2023-06-10T14:22:24;9.48;;;5.35;;
14076;SDS011;7114;51.100;13.998;2023-06-10T14:24:51;9.55;;;5.47;;
14076;SDS011;7114;51.100;13.998;2023-06-10T14:27:17;8.15;;;5.18;;
14076;SDS011;7114;51.100;13.998;2023-06-10T14:29:43;7.77;;;5.27;;
14076;SDS011;7114;51.100;13.998;2023-06-10T14:32:09;9.25;;;5.30;;
14076;SDS011;7114;51.100;13.998;2023-06-10T14:34:36;7.80;;;5.45;;
14076;SDS011;7114;51.100;13.998;2023-06-10T14:37:04;8.50;;;5.30;;
14076;SDS011;7114;51.100;13.998;2023-06-10T14:39:33;8.30;;;5.55;;
14076;SDS011;7114;51.100;13.998;2023-06-10T14:42:00;8.73;;;5.80;;